| time (UTC) | temp F | wind direction | speed MPH | gust MPH | rain 1hr in | rain 24hr in | rain mn in | humidity % | barometer mb |
| 20260507193426 | 62 | 0.0 | 0.0 | 0.00 | 0.00 | 0.00 | 99 | 1012.1 | |
| 20260507192919 | 62 | 0.0 | 0.0 | 0.00 | 0.00 | 0.00 | 99 | 1012.0 | |
| 20260507192413 | 63 | 0.0 | 0.0 | 0.00 | 0.00 | 0.00 | 99 | 1012.0 | |
| 20260507191916 | 63 | 0.0 | 1.0 | 0.00 | 0.00 | 0.00 | 99 | 1012.0 | |
| 20260507191401 | 64 | 0.0 | 0.0 | 0.00 | 0.00 | 0.00 | 99 | 1012.0 | |
| 20260507190855 | 64 | 0.0 | 0.0 | 0.00 | 0.00 | 0.00 | 99 | 1012.1 | |
| 20260507190349 | 64 | 0.0 | 0.0 | 0.00 | 0.00 | 0.00 | 99 | 1012.0 | |
| 20260507185843 | 65 | 0.0 | 0.0 | 0.00 | 0.00 | 0.00 | 99 | 1012.0 | |
| 20260507185337 | 65 | 0.0 | 0.0 | 0.00 | 0.00 | 0.00 | 99 | 1012.0 | |
| 20260507184839 | 65 | 0.0 | 0.0 | 0.00 | 0.00 | 0.00 | 99 | 1011.9 | |
| 20260507184324 | 66 | 0.0 | 0.0 | 0.00 | 0.00 | 0.00 | 99 | 1011.9 | |
| 20260507183818 | 66 | 0.0 | 0.0 | 0.00 | 0.00 | 0.00 | 99 | 1011.9 | |
| 20260507183312 | 66 | 0.0 | 0.0 | 0.00 | 0.00 | 0.00 | 99 | 1011.8 | |
| 20260507182807 | 67 | 1.0 | 3.0 | 0.00 | 0.00 | 0.00 | 99 | 1011.8 | |
| 20260507182301 | 67 | 1.0 | 2.0 | 0.00 | 0.00 | 0.00 | 99 | 1011.7 | |
| 20260507181803 | 67 | 1.0 | 3.0 | 0.00 | 0.00 | 0.00 | 99 | 1011.6 | |
| 20260507181248 | 68 | 2.0 | 5.0 | 0.00 | 0.00 | 0.00 | 99 | 1011.6 | |
| 20260507180742 | 68 | 1.0 | 4.0 | 0.00 | 0.00 | 0.00 | 99 | 1011.6 | |
| 20260507180236 | 68 | 2.0 | 5.0 | 0.00 | 0.00 | 0.00 | 99 | 1011.6 | |
| 20260507175729 | 68 | 0.0 | 1.0 | 0.00 | 0.00 | 0.00 | 99 | 1011.6 | |
| 20260507175223 | 68 | 2.0 | 5.0 | 0.00 | 0.00 | 0.00 | 99 | 1011.6 | |
| 20260507174726 | 68 | 1.0 | 4.0 | 0.00 | 0.00 | 0.00 | 99 | 1011.6 | |
| 20260507174212 | 69 | 2.0 | 6.0 | 0.00 | 0.00 | 0.00 | 99 | 1011.7 | |
| 20260507173705 | 69 | 2.0 | 7.0 | 0.00 | 0.00 | 0.00 | 99 | 1011.7 | |
| 20260507173159 | 69 | 4.0 | 12.0 | 0.00 | 0.00 | 0.00 | 99 | 1011.8 | |
| 20260507172653 | 70 | 3.0 | 10.0 | 0.00 | 0.00 | 0.00 | 99 | 1011.8 | |
| 20260507172147 | 71 | 2.0 | 6.0 | 0.00 | 0.00 | 0.00 | 99 | 1011.9 | |
| 20260507171649 | 70 | 1.0 | 3.0 | 0.00 | 0.00 | 0.00 | 99 | 1011.8 | |
| 20260507171135 | 70 | 3.0 | 8.0 | 0.00 | 0.00 | 0.00 | 99 | 1011.9 | |
| 20260507170629 | 70 | 4.0 | 12.0 | 0.00 | 0.00 | 0.00 | 99 | 1011.9 | |
| 20260507170122 | 71 | 4.0 | 11.0 | 0.00 | 0.00 | 0.00 | 99 | 1012.0 | |
| 20260507165615 | 71 | 4.0 | 11.0 | 0.00 | 0.00 | 0.00 | 99 | 1012.0 | |
| 20260507165109 | 72 | 5.0 | 14.0 | 0.00 | 0.00 | 0.00 | 99 | 1012.0 | |
| 20260507164612 | 72 | 5.0 | 14.0 | 0.00 | 0.00 | 0.00 | 99 | 1012.0 | |
| 20260507164057 | 72 | 4.0 | 11.0 | 0.00 | 0.00 | 0.00 | 99 | 1012.0 | |
| 20260507163551 | 73 | 5.0 | 14.0 | 0.00 | 0.00 | 0.00 | 99 | 1012.0 | |
| 20260507163045 | 73 | 5.0 | 14.0 | 0.00 | 0.00 | 0.00 | 99 | 1012.0 | |
| 20260507162539 | 74 | 4.0 | 12.0 | 0.00 | 0.00 | 0.00 | 99 | 1012.0 | |
| 20260507162033 | 73 | 2.0 | 7.0 | 0.00 | 0.00 | 0.00 | 99 | 1012.0 | |
| 20260507161536 | 71 | 3.0 | 8.0 | 0.00 | 0.00 | 0.00 | 99 | 1012.0 | |
| 20260507161021 | 69 | 1.0 | 3.0 | 0.00 | 0.00 | 0.00 | 99 | 1012.1 | |
| 20260507160515 | 68 | 1.0 | 3.0 | 0.00 | 0.00 | 0.00 | 99 | 1012.2 | |
| 20260507160009 | 69 | 2.0 | 6.0 | 0.00 | 0.00 | 0.00 | 99 | 1012.1 | |
| 20260507155502 | 68 | 1.0 | 4.0 | 0.00 | 0.00 | 0.00 | 99 | 1012.1 | |
| 20260507154956 | 69 | 2.0 | 6.0 | 0.00 | 0.00 | 0.00 | 99 | 1012.1 | |
| 20260507154459 | 69 | 2.0 | 5.0 | 0.00 | 0.00 | 0.00 | 99 | 1012.1 | |
| 20260507154023 | 69 | 2.0 | 5.0 | 0.00 | 0.00 | 0.00 | 99 | 1012.0 | |
| 20260507153944 | 69 | 2.0 | 5.0 | 0.00 | 0.00 | 0.00 | 99 | 1012.0 | |
| 20260507153438 | 69 | 3.0 | 8.0 | 0.00 | 0.00 | 0.00 | 99 | 1011.9 | |
| 20260507152932 | 71 | 3.0 | 9.0 | 0.00 | 0.00 | 0.00 | 99 | 1011.9 | |
| 20260507152426 | 73 | 4.0 | 12.0 | 0.00 | 0.00 | 0.00 | 99 | 1011.8 | |
| 20260507151920 | 72 | 4.0 | 11.0 | 0.00 | 0.00 | 0.00 | 99 | 1011.8 | |
| 20260507151422 | 73 | 4.0 | 13.0 | 0.00 | 0.00 | 0.00 | 99 | 1011.7 | |
| 20260507150907 | 72 | 3.0 | 9.0 | 0.00 | 0.00 | 0.00 | 99 | 1011.7 | |
| 20260507150402 | 72 | 4.0 | 12.0 | 0.00 | 0.00 | 0.00 | 99 | 1011.8 | |
| 20260507145856 | 73 | 5.0 | 16.0 | 0.00 | 0.00 | 0.00 | 99 | 1011.8 | |
| 20260507145349 | 72 | 3.0 | 8.0 | 0.00 | 0.00 | 0.00 | 99 | 1011.8 | |
| 20260507144843 | 72 | 4.0 | 11.0 | 0.00 | 0.00 | 0.00 | 99 | 1011.9 | |
| 20260507144346 | 72 | 4.0 | 13.0 | 0.00 | 0.00 | 0.00 | 99 | 1012.0 | |
| 20260507143831 | 71 | 4.0 | 13.0 | 0.00 | 0.00 | 0.00 | 99 | 1012.0 | |
| 20260507143325 | 72 | 4.0 | 12.0 | 0.00 | 0.00 | 0.00 | 99 | 1012.1 | |
| 20260507142819 | 72 | 4.0 | 12.0 | 0.00 | 0.00 | 0.00 | 99 | 1012.2 | |
| 20260507142313 | 71 | 4.0 | 11.0 | 0.00 | 0.00 | 0.00 | 99 | 1012.3 | |
| 20260507141807 | 72 | 4.0 | 12.0 | 0.00 | 0.00 | 0.00 | 99 | 1012.3 | |
| 20260507141309 | 72 | 4.0 | 12.0 | 0.00 | 0.00 | 0.00 | 99 | 1012.3 | |
| 20260507140755 | 71 | 4.0 | 13.0 | 0.00 | 0.00 | 0.00 | 99 | 1012.4 | |
| 20260507140248 | 71 | 4.0 | 11.0 | 0.00 | 0.00 | 0.00 | 99 | 1012.4 | |
| 20260507135742 | 73 | 4.0 | 12.0 | 0.00 | 0.00 | 0.00 | 99 | 1012.4 | |
| 20260507135236 | 73 | 3.0 | 9.0 | 0.00 | 0.00 | 0.00 | 99 | 1012.5 | |
| 20260507134730 | 71 | 1.0 | 4.0 | 0.00 | 0.00 | 0.00 | 99 | 1012.6 | |
| 20260507134232 | 71 | 4.0 | 12.0 | 0.00 | 0.00 | 0.00 | 99 | 1012.7 | |
| 20260507133717 | 73 | 4.0 | 11.0 | 0.00 | 0.00 | 0.00 | 99 | 1012.8 | |
| 20260507133211 | 72 | 3.0 | 10.0 | 0.00 | 0.00 | 0.00 | 99 | 1012.9 | |
| 20260507132706 | 72 | 4.0 | 13.0 | 0.00 | 0.00 | 0.00 | 99 | 1013.0 | |
| 20260507132200 | 73 | 3.0 | 9.0 | 0.00 | 0.00 | 0.00 | 99 | 1013.0 | |
| 20260507131654 | 72 | 2.0 | 7.0 | 0.00 | 0.00 | 0.00 | 99 | 1013.1 | |
| 20260507131156 | 72 | 3.0 | 8.0 | 0.00 | 0.00 | 0.00 | 99 | 1013.2 | |
| 20260507130641 | 72 | 3.0 | 9.0 | 0.00 | 0.00 | 0.00 | 98 | 1013.2 | |
| 20260507130135 | 71 | 3.0 | 10.0 | 0.00 | 0.00 | 0.00 | 99 | 1013.3 | |
| 20260507125628 | 71 | 4.0 | 12.0 | 0.00 | 0.00 | 0.00 | 99 | 1013.4 | |
| 20260507125123 | 71 | 4.0 | 12.0 | 0.00 | 0.00 | 0.00 | 98 | 1013.4 | |
| 20260507124616 | 71 | 4.0 | 12.0 | 0.00 | 0.00 | 0.00 | 99 | 1013.5 | |
| 20260507124119 | 70 | 3.0 | 10.0 | 0.00 | 0.00 | 0.00 | 99 | 1013.5 | |
| 20260507123604 | 71 | 4.0 | 13.0 | 0.00 | 0.00 | 0.00 | 99 | 1013.6 | |
| 20260507123058 | 73 | 3.0 | 9.0 | 0.00 | 0.00 | 0.00 | 99 | 1013.7 | |
| 20260507122552 | 72 | 3.0 | 10.0 | 0.00 | 0.00 | 0.00 | 97 | 1013.8 | |
| 20260507122046 | 72 | 4.0 | 11.0 | 0.00 | 0.00 | 0.00 | 98 | 1013.8 | |
| 20260507121540 | 72 | 4.0 | 11.0 | 0.00 | 0.00 | 0.00 | 99 | 1013.8 | |
| 20260507121043 | 71 | 3.0 | 10.0 | 0.00 | 0.00 | 0.00 | 99 | 1013.8 | |
| 20260507120528 | 71 | 4.0 | 12.0 | 0.00 | 0.00 | 0.00 | 99 | 1013.9 | |
| 20260507120022 | 71 | 3.0 | 10.0 | 0.00 | 0.00 | 0.00 | 98 | 1013.9 | |
| 20260507115515 | 71 | 4.0 | 12.0 | 0.00 | 0.00 | 0.00 | 97 | 1014.0 | |
| 20260507115010 | 73 | 4.0 | 12.0 | 0.00 | 0.00 | 0.00 | 99 | 1014.0 | |
| 20260507114504 | 71 | 3.0 | 8.0 | 0.00 | 0.00 | 0.00 | 98 | 1014.1 | |
| 20260507114006 | 71 | 4.0 | 11.0 | 0.00 | 0.00 | 0.00 | 98 | 1014.1 | |
| 20260507113452 | 71 | 3.0 | 8.0 | 0.00 | 0.00 | 0.00 | 99 | 1014.2 | |
| 20260507112946 | 70 | 3.0 | 9.0 | 0.00 | 0.00 | 0.00 | 99 | 1014.2 | |
| 20260507112440 | 70 | 4.0 | 11.0 | 0.00 | 0.00 | 0.00 | 98 | 1014.3 | |
| 20260507111935 | 70 | 3.0 | 9.0 | 0.00 | 0.00 | 0.00 | 99 | 1014.3 | |
| 20260507111429 | 70 | 3.0 | 8.0 | 0.00 | 0.00 | 0.00 | 99 | 1014.4 | |
| 20260507110931 | 71 | 3.0 | 10.0 | 0.00 | 0.00 | 0.00 | 99 | 1014.5 | |
| 20260507110418 | 71 | 3.0 | 9.0 | 0.00 | 0.00 | 0.00 | 99 | 1014.5 | |
| 20260507105911 | 72 | 2.0 | 6.0 | 0.00 | 0.00 | 0.00 | 99 | 1014.6 | |
| 20260507105404 | 70 | 2.0 | 6.0 | 0.00 | 0.00 | 0.00 | 99 | 1014.6 | |
| 20260507104858 | 69 | 2.0 | 6.0 | 0.00 | 0.00 | 0.00 | 99 | 1014.6 | |
| 20260507104352 | 68 | 2.0 | 7.0 | 0.00 | 0.00 | 0.00 | 99 | 1014.7 | |
| 20260507103855 | 67 | 3.0 | 9.0 | 0.00 | 0.00 | 0.00 | 99 | 1014.8 | |
| 20260507103340 | 70 | 3.0 | 10.0 | 0.00 | 0.00 | 0.00 | 99 | 1014.8 | |
| 20260507102835 | 68 | 3.0 | 8.0 | 0.00 | 0.00 | 0.00 | 99 | 1014.9 | |
| 20260507102327 | 68 | 3.0 | 8.0 | 0.00 | 0.00 | 0.00 | 99 | 1015.0 | |
| 20260507101821 | 67 | 3.0 | 10.0 | 0.00 | 0.00 | 0.00 | 99 | 1015.1 | |
| 20260507101315 | 69 | 3.0 | 9.0 | 0.00 | 0.00 | 0.00 | 99 | 1015.1 | |
| 20260507100818 | 69 | 3.0 | 8.0 | 0.00 | 0.00 | 0.00 | 99 | 1015.2 | |
| 20260507100303 | 70 | 2.0 | 6.0 | 0.00 | 0.00 | 0.00 | 99 | 1015.3 | |
| 20260507095756 | 68 | 2.0 | 7.0 | 0.00 | 0.00 | 0.00 | 99 | 1015.4 | |
| 20260507095250 | 68 | 3.0 | 9.0 | 0.00 | 0.00 | 0.00 | 99 | 1015.4 | |
| 20260507094744 | 69 | 3.0 | 10.0 | 0.00 | 0.00 | 0.00 | 99 | 1015.5 | |
| 20260507094238 | 68 | 3.0 | 8.0 | 0.00 | 0.00 | 0.00 | 99 | 1015.5 | |
| 20260507093740 | 68 | 3.0 | 10.0 | 0.00 | 0.00 | 0.00 | 99 | 1015.5 | |
| 20260507093226 | 68 | 3.0 | 8.0 | 0.00 | 0.00 | 0.00 | 99 | 1015.6 | |
| 20260507092720 | 66 | 3.0 | 8.0 | 0.00 | 0.00 | 0.00 | 99 | 1015.6 | |
| 20260507092213 | 65 | 3.0 | 8.0 | 0.00 | 0.00 | 0.00 | 99 | 1015.6 | |
| 20260507091707 | 66 | 3.0 | 8.0 | 0.00 | 0.00 | 0.00 | 99 | 1015.6 | |
| 20260507091201 | 65 | 2.0 | 7.0 | 0.00 | 0.00 | 0.00 | 99 | 1015.5 | |
| 20260507090703 | 65 | 2.0 | 7.0 | 0.00 | 0.00 | 0.00 | 99 | 1015.5 | |
| 20260507090148 | 67 | 2.0 | 6.0 | 0.00 | 0.00 | 0.00 | 99 | 1015.5 | |
| 20260507085642 | 65 | 2.0 | 7.0 | 0.00 | 0.00 | 0.00 | 99 | 1015.6 | |
| 20260507085136 | 64 | 2.0 | 7.0 | 0.00 | 0.00 | 0.00 | 99 | 1015.5 | |
| 20260507084630 | 65 | 3.0 | 8.0 | 0.00 | 0.00 | 0.00 | 99 | 1015.6 | |
| 20260507084124 | 67 | 2.0 | 7.0 | 0.00 | 0.00 | 0.00 | 99 | 1015.6 | |
| 20260507083627 | 67 | 2.0 | 5.0 | 0.00 | 0.00 | 0.00 | 99 | 1015.7 | |
| 20260507083112 | 66 | 2.0 | 5.0 | 0.00 | 0.00 | 0.00 | 99 | 1015.7 | |
| 20260507082606 | 65 | 2.0 | 5.0 | 0.00 | 0.00 | 0.00 | 99 | 1015.7 | |
| 20260507082100 | 63 | 3.0 | 8.0 | 0.00 | 0.00 | 0.00 | 99 | 1015.7 | |
| 20260507081554 | 63 | 2.0 | 7.0 | 0.00 | 0.00 | 0.00 | 99 | 1015.7 | |
| 20260507081048 | 66 | 2.0 | 6.0 | 0.00 | 0.00 | 0.00 | 99 | 1015.8 | |
| 20260507080550 | 66 | 0.0 | 1.0 | 0.00 | 0.00 | 0.00 | 99 | 1015.8 | |
| 20260507080035 | 66 | 2.0 | 5.0 | 0.00 | 0.00 | 0.00 | 99 | 1015.7 | |
| 20260507075528 | 65 | 1.0 | 3.0 | 0.00 | 0.00 | 0.00 | 99 | 1015.8 | |
| 20260507075022 | 65 | 1.0 | 4.0 | 0.00 | 0.00 | 0.00 | 99 | 1015.8 | |
| 20260507074517 | 65 | 2.0 | 6.0 | 0.00 | 0.00 | 0.00 | 99 | 1015.7 | |
| 20260507074011 | 62 | 0.0 | 1.0 | 0.00 | 0.00 | 0.00 | 99 | 1015.8 | |
| 20260507073514 | 64 | 0.0 | 1.0 | 0.00 | 0.00 | 0.00 | 99 | 1015.8 | |
| 20260507072959 | 66 | 0.0 | 0.0 | 0.00 | 0.00 | 0.00 | 99 | 1015.8 | |
| 20260507072453 | 65 | 0.0 | 0.0 | 0.00 | 0.00 | 0.00 | 99 | 1015.9 | |
| 20260507071947 | 65 | 0.0 | 0.0 | 0.00 | 0.00 | 0.00 | 99 | 1015.9 | |
| 20260507071441 | 66 | 0.0 | 0.0 | 0.00 | 0.00 | 0.00 | 99 | 1015.9 | |
| 20260507070935 | 67 | 0.0 | 0.0 | 0.00 | 0.00 | 0.00 | 99 | 1015.9 | |
| 20260507070437 | 65 | 0.0 | 0.0 | 0.00 | 0.00 | 0.00 | 99 | 1016.0 | |
| 20260507065923 | 64 | 0.0 | 0.0 | 0.00 | 0.00 | 0.00 | 99 | 1015.9 | |
| 20260507065416 | 66 | 0.0 | 0.0 | 0.00 | 0.00 | 0.00 | 99 | 1015.9 | |
| 20260507064910 | 64 | 0.0 | 0.0 | 0.00 | 0.00 | 0.00 | 99 | 1015.9 | |
| 20260507064404 | 62 | 0.0 | 0.0 | 0.00 | 0.00 | 0.00 | 99 | 1015.9 | |
| 20260507063858 | 62 | 0.0 | 0.0 | 0.00 | 0.00 | 0.00 | 99 | 1015.9 | |
| 20260507063401 | 66 | 0.0 | 0.0 | 0.00 | 0.00 | 0.00 | 99 | 1015.8 | |
| 20260507062846 | 65 | 0.0 | 0.0 | 0.00 | 0.00 | 0.00 | 99 | 1015.8 | |
| 20260507062340 | 63 | 0.0 | 0.0 | 0.00 | 0.00 | 0.00 | 99 | 1015.8 | |
| 20260507061835 | 62 | 0.0 | 0.0 | 0.00 | 0.00 | 0.00 | 99 | 1015.8 | |
| 20260507061329 | 58 | 0.0 | 0.0 | 0.00 | 0.00 | 0.00 | 99 | 1015.9 | |
| 20260507060326 | 69 | 0.0 | 0.0 | 0.00 | 0.00 | 0.00 | 99 | 1015.9 | |
| 20260507055810 | 68 | 0.0 | 0.0 | 0.00 | 0.00 | 0.00 | 99 | 1016.0 | |
| 20260507055306 | 67 | 0.0 | 0.0 | 0.00 | 0.00 | 0.00 | 99 | 1016.0 | |
| 20260507054758 | 65 | 0.0 | 0.0 | 0.00 | 0.00 | 0.00 | 99 | 1015.9 | |
| 20260507054253 | 61 | 0.0 | 0.0 | 0.00 | 0.00 | 0.00 | 99 | 1015.9 | |
| 20260507053747 | 57 | 0.0 | 0.0 | 0.00 | 0.00 | 0.00 | 99 | 1015.8 | |
| 20260507053249 | 51 | 0.0 | 0.0 | 0.00 | 0.00 | 0.00 | 99 | 1015.7 | |
| 20260507052735 | 45 | 0.0 | 0.0 | 0.00 | 0.00 | 0.00 | 99 | 1015.7 | |
| 20260507052229 | 42 | 0.0 | 0.0 | 0.00 | 0.00 | 0.00 | 99 | 1015.7 | |
| 20260507051722 | 42 | 0.0 | 0.0 | 0.00 | 0.00 | 0.00 | 99 | 1015.7 | |
| 20260507051217 | 41 | 0.0 | 0.0 | 0.00 | 0.00 | 0.00 | 99 | 1015.6 | |
| 20260507050711 | 41 | 0.0 | 0.0 | 0.00 | 0.00 | 0.00 | 99 | 1015.6 | |
| 20260507050213 | 41 | 0.0 | 0.0 | 0.00 | 0.00 | 0.00 | 99 | 1015.5 | |
| 20260507045657 | 41 | 0.0 | 0.0 | 0.00 | 0.00 | 0.00 | 99 | 1015.5 | |
| 20260507045151 | 41 | 0.0 | 0.0 | 0.00 | 0.00 | 0.00 | 99 | 1015.6 | |
| 20260507044645 | 41 | 0.0 | 0.0 | 0.00 | 0.00 | 0.00 | 99 | 1015.6 | |
| 20260507044139 | 42 | 0.0 | 0.0 | 0.00 | 0.00 | 0.00 | 99 | 1015.5 | |
| 20260507043633 | 42 | 0.0 | 0.0 | 0.00 | 0.00 | 0.00 | 99 | 1015.5 | |
| 20260507043136 | 42 | 0.0 | 0.0 | 0.00 | 0.00 | 0.00 | 99 | 1015.5 | |
| 20260507042621 | 42 | 0.0 | 0.0 | 0.00 | 0.00 | 0.00 | 99 | 1015.6 | |
| 20260507042116 | 42 | 0.0 | 0.0 | 0.00 | 0.00 | 0.00 | 99 | 1015.6 | |
| 20260507041610 | 42 | 0.0 | 0.0 | 0.00 | 0.00 | 0.00 | 99 | 1015.6 | |
| 20260507041104 | 42 | 0.0 | 0.0 | 0.00 | 0.00 | 0.00 | 99 | 1015.6 | |
| 20260507040558 | 42 | 0.0 | 0.0 | 0.00 | 0.00 | 0.00 | 99 | 1015.6 | |
| 20260507040100 | 42 | 0.0 | 0.0 | 0.00 | 0.00 | 0.00 | 99 | 1015.5 | |
| 20260507035545 | 42 | 0.0 | 0.0 | 0.00 | 0.00 | 0.00 | 99 | 1015.6 | |
| 20260507035039 | 42 | 0.0 | 0.0 | 0.00 | 0.00 | 0.00 | 99 | 1015.7 | |
| 20260507034533 | 42 | 0.0 | 0.0 | 0.00 | 0.00 | 0.00 | 99 | 1015.7 | |
| 20260507034028 | 42 | 0.0 | 0.0 | 0.00 | 0.00 | 0.00 | 99 | 1015.6 | |
| 20260507033522 | 42 | 0.0 | 0.0 | 0.00 | 0.00 | 0.00 | 99 | 1015.6 | |
| 20260507033025 | 43 | 0.0 | 0.0 | 0.00 | 0.00 | 0.00 | 99 | 1015.6 | |
| 20260507032510 | 43 | 0.0 | 0.0 | 0.00 | 0.00 | 0.00 | 99 | 1015.7 | |
| 20260507032004 | 43 | 0.0 | 0.0 | 0.00 | 0.00 | 0.00 | 99 | 1015.6 | |
| 20260507031458 | 43 | 0.0 | 0.0 | 0.00 | 0.00 | 0.00 | 99 | 1015.7 | |
| 20260507030954 | 43 | 0.0 | 0.0 | 0.00 | 0.00 | 0.00 | 99 | 1015.6 | |
| 20260507030446 | 43 | 0.0 | 0.0 | 0.00 | 0.00 | 0.00 | 99 | 1015.6 | |
| 20260507025949 | 43 | 0.0 | 0.0 | 0.00 | 0.00 | 0.00 | 99 | 1015.7 | |
| 20260507025433 | 43 | 0.0 | 0.0 | 0.00 | 0.00 | 0.00 | 99 | 1015.7 | |
| 20260507024927 | 43 | 0.0 | 0.0 | 0.00 | 0.00 | 0.00 | 99 | 1015.7 | |
| 20260507024421 | 43 | 0.0 | 0.0 | 0.00 | 0.00 | 0.00 | 99 | 1015.7 | |
| 20260507023915 | 43 | 0.0 | 0.0 | 0.00 | 0.00 | 0.00 | 99 | 1015.7 | |
| 20260507023409 | 44 | 0.0 | 0.0 | 0.00 | 0.00 | 0.00 | 99 | 1015.7 | |
| 20260507022912 | 44 | 0.0 | 0.0 | 0.00 | 0.00 | 0.00 | 99 | 1015.7 | |
| 20260507022358 | 44 | 0.0 | 0.0 | 0.00 | 0.00 | 0.00 | 99 | 1015.7 | |
| 20260507021851 | 44 | 0.0 | 0.0 | 0.00 | 0.00 | 0.00 | 99 | 1015.7 | |
| 20260507021345 | 44 | 0.0 | 0.0 | 0.00 | 0.00 | 0.00 | 99 | 1015.7 | |
| 20260507020840 | 44 | 0.0 | 0.0 | 0.00 | 0.00 | 0.00 | 99 | 1015.6 | |
| 20260507020334 | 44 | 0.0 | 0.0 | 0.00 | 0.00 | 0.00 | 99 | 1015.7 | |
| 20260507015835 | 44 | 0.0 | 0.0 | 0.00 | 0.00 | 0.00 | 99 | 1015.7 | |
| 20260507015321 | 44 | 0.0 | 0.0 | 0.00 | 0.00 | 0.00 | 99 | 1015.7 | |
| 20260507014815 | 44 | 0.0 | 0.0 | 0.00 | 0.00 | 0.00 | 99 | 1015.7 | |
| 20260507014309 | 44 | 0.0 | 0.0 | 0.00 | 0.00 | 0.00 | 99 | 1015.7 | |
| 20260507013803 | 44 | 0.0 | 0.0 | 0.00 | 0.00 | 0.00 | 99 | 1015.8 | |
| 20260507013257 | 44 | 0.0 | 0.0 | 0.00 | 0.00 | 0.00 | 99 | 1015.8 | |
| 20260507012800 | 44 | 0.0 | 0.0 | 0.00 | 0.00 | 0.00 | 99 | 1015.9 | |
| 20260507012245 | 45 | 0.0 | 0.0 | 0.00 | 0.00 | 0.00 | 99 | 1015.9 | |
| 20260507011739 | 45 | 0.0 | 0.0 | 0.00 | 0.00 | 0.00 | 99 | 1015.9 | |
| 20260507011233 | 45 | 0.0 | 0.0 | 0.00 | 0.00 | 0.00 | 99 | 1015.9 | |
| 20260507010727 | 45 | 0.0 | 0.0 | 0.00 | 0.00 | 0.00 | 99 | 1015.9 | |
| 20260507010221 | 45 | 0.0 | 0.0 | 0.00 | 0.00 | 0.00 | 99 | 1016.0 | |
| 20260507005723 | 45 | 0.0 | 0.0 | 0.00 | 0.00 | 0.00 | 99 | 1016.0 | |
| 20260507005208 | 46 | 0.0 | 0.0 | 0.00 | 0.00 | 0.00 | 99 | 1016.0 | |
| 20260507004702 | 45 | 0.0 | 0.0 | 0.00 | 0.00 | 0.00 | 99 | 1016.0 | |
| 20260507004156 | 46 | 0.0 | 0.0 | 0.00 | 0.00 | 0.00 | 99 | 1016.0 | |
| 20260507003650 | 46 | 0.0 | 0.0 | 0.00 | 0.00 | 0.00 | 99 | 1016.0 | |
| 20260507003144 | 46 | 0.0 | 0.0 | 0.00 | 0.00 | 0.00 | 99 | 1016.1 | |
| 20260507002646 | 46 | 0.0 | 0.0 | 0.00 | 0.00 | 0.00 | 99 | 1016.2 | |
| 20260507002132 | 46 | 0.0 | 0.0 | 0.00 | 0.00 | 0.00 | 99 | 1016.3 | |
| 20260507001626 | 46 | 0.0 | 0.0 | 0.00 | 0.00 | 0.00 | 99 | 1016.3 | |
| 20260507001120 | 46 | 0.0 | 0.0 | 0.00 | 0.00 | 0.00 | 99 | 1016.3 | |
| 20260507000614 | 46 | 0.0 | 0.0 | 0.00 | 0.00 | 0.00 | 99 | 1016.4 | |
| 20260507000108 | 46 | 0.0 | 0.0 | 0.00 | 0.00 | 0.00 | 99 | 1016.5 | |
| 20260506235612 | 46 | 0.0 | 0.0 | 0.00 | 0.00 | 0.91 | 99 | 1016.5 | |
| 20260506235058 | 47 | 0.0 | 0.0 | 0.00 | 0.00 | 0.91 | 99 | 1016.5 | |
| 20260506234552 | 47 | 0.0 | 0.0 | 0.00 | 0.00 | 0.91 | 99 | 1016.5 | |
| 20260506234046 | 47 | 0.0 | 0.0 | 0.00 | 0.00 | 0.91 | 99 | 1016.6 | |
| 20260506233540 | 47 | 0.0 | 0.0 | 0.00 | 0.00 | 0.91 | 99 | 1016.5 | |
| 20260506233034 | 47 | 0.0 | 0.0 | 0.00 | 0.00 | 0.91 | 99 | 1016.5 | |
| 20260506232536 | 47 | 0.0 | 0.0 | 0.00 | 0.00 | 0.91 | 99 | 1016.5 | |
| 20260506232021 | 47 | 0.0 | 0.0 | 0.00 | 0.00 | 0.91 | 99 | 1016.5 | |
| 20260506231515 | 48 | 0.0 | 0.0 | 0.00 | 0.00 | 0.91 | 99 | 1016.5 | |
| 20260506231009 | 48 | 0.0 | 0.0 | 0.00 | 0.00 | 0.91 | 99 | 1016.5 | |
| 20260506230503 | 48 | 0.0 | 0.0 | 0.00 | 0.00 | 0.91 | 99 | 1016.6 | |
| 20260506225957 | 48 | 0.0 | 0.0 | 0.00 | 0.00 | 0.91 | 99 | 1016.6 | |
| 20260506225501 | 48 | 0.0 | 0.0 | 0.00 | 0.00 | 0.91 | 99 | 1016.6 | |
| 20260506224946 | 48 | 0.0 | 0.0 | 0.00 | 0.00 | 0.91 | 99 | 1016.6 | |
| 20260506224440 | 48 | 0.0 | 0.0 | 0.00 | 0.00 | 0.91 | 99 | 1016.6 | |
| 20260506223934 | 48 | 0.0 | 0.0 | 0.00 | 0.00 | 0.91 | 99 | 1016.6 | |
| 20260506223428 | 49 | 0.0 | 0.0 | 0.00 | 0.00 | 0.91 | 99 | 1016.7 | |
| 20260506222922 | 49 | 0.0 | 0.0 | 0.00 | 0.00 | 0.91 | 99 | 1016.6 | |
| 20260506222424 | 49 | 0.0 | 0.0 | 0.00 | 0.00 | 0.91 | 99 | 1016.6 | |
| 20260506221910 | 49 | 0.0 | 0.0 | 0.00 | 0.00 | 0.91 | 99 | 1016.6 | |
| 20260506221404 | 49 | 0.0 | 0.0 | 0.00 | 0.00 | 0.91 | 99 | 1016.7 | |
| 20260506220858 | 49 | 0.0 | 0.0 | 0.00 | 0.00 | 0.91 | 99 | 1016.7 | |
| 20260506220352 | 49 | 0.0 | 0.0 | 0.00 | 0.00 | 0.91 | 99 | 1016.7 | |
| 20260506215846 | 50 | 0.0 | 0.0 | 0.00 | 0.00 | 0.91 | 99 | 1016.7 | |
| 20260506215347 | 50 | 0.0 | 0.0 | 0.00 | 0.00 | 0.91 | 99 | 1016.7 | |
| 20260506214833 | 50 | 0.0 | 0.0 | 0.00 | 0.00 | 0.91 | 99 | 1016.7 | |
| 20260506214327 | 50 | 0.0 | 0.0 | 0.00 | 0.00 | 0.91 | 99 | 1016.7 | |
| 20260506213823 | 50 | 0.0 | 0.0 | 0.00 | 0.00 | 0.91 | 99 | 1016.8 | |
| 20260506213314 | 50 | 0.0 | 0.0 | 0.00 | 0.00 | 0.91 | 99 | 1016.8 | |
| 20260506212808 | 50 | 0.0 | 0.0 | 0.00 | 0.00 | 0.91 | 99 | 1016.8 | |
| 20260506212311 | 50 | 0.0 | 0.0 | 0.00 | 0.00 | 0.91 | 99 | 1016.8 | |
| 20260506211756 | 51 | 0.0 | 0.0 | 0.00 | 0.00 | 0.91 | 99 | 1016.8 | |
| 20260506211250 | 51 | 0.0 | 0.0 | 0.00 | 0.00 | 0.91 | 99 | 1016.8 | |
| 20260506210744 | 51 | 0.0 | 1.0 | 0.00 | 0.00 | 0.91 | 99 | 1016.8 | |
| 20260506210238 | 51 | 0.0 | 1.0 | 0.00 | 0.00 | 0.91 | 99 | 1016.8 | |
| 20260506205731 | 52 | 6.0 | 17.0 | 0.00 | 0.00 | 0.91 | 99 | 1016.8 | |
| 20260506205234 | 52 | 0.0 | 0.0 | 0.00 | 0.00 | 0.91 | 99 | 1016.8 | |
| 20260506204719 | 52 | 9.0 | 52.0 | 0.00 | 0.00 | 0.91 | 99 | 1016.8 | |
| 20260506204214 | 53 | 0.0 | 0.0 | 0.00 | 0.00 | 0.91 | 99 | 1016.8 | |
| 20260506203707 | 53 | 0.0 | 0.0 | 0.00 | 0.00 | 0.91 | 99 | 1016.8 | |
| 20260506203201 | 53 | 0.0 | 0.0 | 0.00 | 0.00 | 0.91 | 99 | 1016.8 | |
| 20260506202656 | 53 | 0.0 | 0.0 | 0.00 | 0.00 | 0.91 | 99 | 1016.7 | |
| 20260506202158 | 54 | 0.0 | 0.0 | 0.00 | 0.00 | 0.91 | 99 | 1016.7 | |
| 20260506201643 | 54 | 0.0 | 0.0 | 0.00 | 0.00 | 0.91 | 99 | 1016.6 | |
| 20260506201137 | 55 | 0.0 | 0.0 | 0.00 | 0.00 | 0.91 | 99 | 1016.5 | |
| 20260506200631 | 55 | 0.0 | 0.0 | 0.00 | 0.00 | 0.91 | 99 | 1016.5 | |
| 20260506200125 | 56 | 0.0 | 0.0 | 0.00 | 0.00 | 0.91 | 99 | 1016.5 | |
| 20260506195618 | 56 | 0.0 | 0.0 | 0.00 | 0.00 | 0.91 | 99 | 1016.5 | |
| 20260506195121 | 56 | 0.0 | 0.0 | 0.00 | 0.00 | 0.91 | 99 | 1016.4 | |
| 20260506194606 | 56 | 0.0 | 0.0 | 0.00 | 0.00 | 0.91 | 99 | 1016.2 | |
| 20260506194100 | 56 | 0.0 | 0.0 | 0.00 | 0.00 | 0.91 | 99 | 1016.1 | |
| 20260506193554 | 56 | 0.0 | 0.0 | 0.00 | 0.00 | 0.91 | 99 | 1016.1 |